METAR Data
IDs: Format: Raw Decoded Include TAF

Data at: 2051 UTC 17 Nov 2019

KLBO 172035Z AUTO 25009KT 10SM CLR 09/00 A2993 RMK AO2
KLBO 172015Z AUTO 24009KT 10SM CLR 10/00 A2993 RMK AO2
KLBO 171955Z AUTO 25005KT 10SM CLR 08/00 A2993 RMK AO2
KLBO 171935Z AUTO 24006KT 10SM DZ SCT070 08/00 A2994 RMK AO2
KLBO 171915Z AUTO 26012KT 10SM SCT070 08/M01 A2996 RMK AO2
KLBO 171855Z AUTO 26009KT 10SM CLR 08/M01 A2996 RMK AO2
KLBO 171835Z AUTO 26010KT 10SM CLR 09/M01 A2996 RMK AO2
KLBO 171815Z AUTO 26008KT 10SM CLR 09/M01 A2997 RMK AO2
KLBO 171755Z AUTO 25011KT 10SM CLR 09/M02 A2999 RMK AO2
KLBO 171735Z AUTO 24008KT 10SM CLR 08/M02 A2999 RMK AO2
KLBO 171715Z AUTO 23008KT 10SM CLR 08/M02 A3000 RMK AO2
KLBO 171655Z AUTO 23009KT 10SM CLR 08/M01 A3001 RMK AO2
KLBO 171635Z AUTO 21005KT 10SM CLR 07/00 A3002 RMK AO2
KLBO 171615Z AUTO 20006KT 10SM CLR 07/00 A3002 RMK AO2
KLBO 171555Z AUTO 21005KT 10SM CLR 07/00 A3002 RMK AO2
KLBO 171535Z AUTO 19006KT 10SM CLR 06/00 A3002 RMK AO2
KLBO 171515Z AUTO 19009KT 10SM CLR 06/00 A3003 RMK AO2
KLBO 171455Z AUTO 20006KT 10SM CLR 06/00 A3003 RMK AO2
KLBO 171435Z AUTO 20005KT 10SM CLR 06/00 A3004 RMK AO2
KLBO 171415Z AUTO 19006KT 10SM CLR 06/00 A3004 RMK AO2
KLBO 171355Z AUTO 19005KT 10SM CLR 05/00 A3004 RMK AO2
KLBO 171335Z AUTO 18005KT 10SM CLR 05/00 A3004 RMK AO2
KLBO 171315Z AUTO 18005KT 10SM CLR 05/00 A3003 RMK AO2
KLBO 171255Z AUTO 21005KT 10SM CLR 05/00 A3004 RMK AO2
KLBO 171235Z AUTO 19005KT 10SM CLR 05/00 A3004 RMK AO2
KLBO 171215Z AUTO 18004KT 10SM CLR 05/00 A3004 RMK AO2
KLBO 171155Z AUTO 19005KT 10SM CLR 05/00 A3004 RMK AO2
KLBO 171135Z AUTO 19005KT 10SM CLR 05/00 A3005 RMK AO2
KLBO 171115Z AUTO 15004KT 10SM CLR 05/00 A3004 RMK AO2
KLBO 171055Z AUTO 17005KT 10SM CLR 05/00 A3006 RMK AO2
KLBO 171035Z AUTO 16006KT 10SM CLR 05/00 A3007 RMK AO2
KLBO 171015Z AUTO 15004KT 10SM CLR 05/M01 A3007 RMK AO2
KLBO 170955Z AUTO 16005KT 10SM CLR 05/M01 A3008 RMK AO2
KLBO 170935Z AUTO 17004KT 10SM CLR 05/M01 A3008 RMK AO2
KLBO 170915Z AUTO 17005KT 10SM CLR 05/M01 A3008 RMK AO2
KLBO 170855Z AUTO 15004KT 10SM CLR 05/M01 A3008 RMK AO2
KLBO 170835Z AUTO 17006KT 10SM CLR 05/M01 A3009 RMK AO2
KLBO 170815Z AUTO 16005KT 10SM CLR 05/M01 A3010 RMK AO2
KLBO 170755Z AUTO 17003KT 10SM CLR 05/M01 A3010 RMK AO2
KLBO 170735Z AUTO 17004KT 10SM CLR 05/M01 A3010 RMK AO2
KLBO 170715Z AUTO 17004KT 10SM CLR 05/M01 A3010 RMK AO2
KLBO 170655Z AUTO 17003KT 10SM CLR 05/M01 A3010 RMK AO2
KLBO 170635Z AUTO 18004KT 10SM CLR 06/M01 A3011 RMK AO2
KLBO 170615Z AUTO 17004KT 10SM CLR 06/M01 A3011 RMK AO2
KLBO 170555Z AUTO 16006KT 10SM CLR 06/M01 A3010 RMK AO2
KLBO 170535Z AUTO 15006KT 10SM CLR 06/M01 A3010 RMK AO2
KLBO 170515Z AUTO 17007KT 10SM CLR 06/M01 A3011 RMK AO2
KLBO 170455Z AUTO 19004KT 10SM CLR 05/M02 A3011 RMK AO2
KLBO 170435Z AUTO 17003KT 10SM CLR 05/M02 A3011 RMK AO2
KLBO 170415Z AUTO 18003KT 10SM CLR 05/M02 A3011 RMK AO2
KLBO 170355Z AUTO 16003KT 10SM CLR 05/M02 A3011 RMK AO2
KLBO 170335Z AUTO 14005KT 10SM CLR 06/M02 A3010 RMK AO2
KLBO 170315Z AUTO 15005KT 10SM CLR 05/M02 A3010 RMK AO2
KLBO 170255Z AUTO 15006KT 10SM CLR 05/M02 A3010 RMK AO2
KLBO 170235Z AUTO 15006KT 10SM CLR 05/M03 A3011 RMK AO2
KLBO 170215Z AUTO 15006KT 10SM CLR 06/M03 A3011 RMK AO2
KLBO 170155Z AUTO 17006KT 10SM CLR 06/M03 A3012 RMK AO2
KLBO 170135Z AUTO 16005KT 10SM CLR 06/M03 A3012 RMK AO2
KLBO 170115Z AUTO 16005KT 10SM CLR 06/M04 A3012 RMK AO2
KLBO 170055Z AUTO 16005KT 10SM CLR 07/M05 A3012 RMK AO2
KLBO 170035Z AUTO 16003KT 10SM CLR 07/M05 A3013 RMK AO2
KLBO 170015Z AUTO 14005KT 10SM CLR 08/M05 A3012 RMK AO2
KLBO 162355Z AUTO 14004KT 10SM CLR 08/M05 A3012 RMK AO2
KLBO 162335Z AUTO 15004KT 10SM CLR 08/M05 A3012 RMK AO2
KLBO 162315Z AUTO 14004KT 10SM CLR 10/M06 A3013 RMK AO2
KLBO 162255Z AUTO 13004KT 10SM CLR 11/M06 A3012 RMK AO2
KLBO 162235Z AUTO 12005KT 10SM CLR 12/M06 A3013 RMK AO2
KLBO 162215Z AUTO 13006KT 10SM CLR 13/M06 A3014 RMK AO2
KLBO 162155Z AUTO 14006KT 10SM CLR 13/M06 A3014 RMK AO2
KLBO 162135Z AUTO 15007KT 10SM CLR 13/M06 A3015 RMK AO2
KLBO 162115Z AUTO 14007KT 10SM CLR 13/M06 A3015 RMK AO2
KLBO 162055Z AUTO 13005KT 10SM CLR 13/M07 A3016 RMK AO2
KLBO 162035Z AUTO 00000KT 10SM CLR 13/M06 A3017 RMK AO2
KLBO 162015Z AUTO 14006KT 10SM CLR 14/M07 A3017 RMK AO2
KLBO 161955Z AUTO 16004KT 10SM CLR 13/M07 A3018 RMK AO2
KLBO 161935Z AUTO 18005KT 10SM CLR 13/M07 A3020 RMK AO2
KLBO 161915Z AUTO 15005KT 10SM CLR 13/M06 A3020 RMK AO2
KLBO 161855Z AUTO 16005KT 10SM CLR 12/M05 A3021 RMK AO2
KLBO 161835Z AUTO 00000KT 10SM CLR 12/M05 A3022 RMK AO2
KLBO 161815Z AUTO 16006KT 10SM CLR 12/M05 A3024 RMK AO2
KLBO 161755Z AUTO 17003KT 10SM CLR 11/M04 A3025 RMK AO2
KLBO 161735Z AUTO 18004KT 10SM CLR 11/M04 A3027 RMK AO2
KLBO 161715Z AUTO 17006KT 163V223 10SM CLR 10/M05 A3028 RMK AO2
KLBO 161655Z AUTO 17004KT 10SM CLR 10/M05 A3029 RMK AO2
KLBO 161635Z AUTO 14005KT 10SM CLR 08/M05 A3029 RMK AO2
KLBO 161615Z AUTO 15005KT 10SM CLR 07/M05 A3029 RMK AO2
KLBO 161555Z AUTO 15005KT 10SM CLR 07/M06 A3030 RMK AO2
KLBO 161535Z AUTO 15007KT 10SM CLR 06/M06 A3031 RMK AO2
KLBO 161515Z AUTO 16006KT 10SM CLR 05/M05 A3030 RMK AO2
KLBO 161455Z AUTO 15004KT 10SM CLR 03/M05 A3030 RMK AO2
KLBO 161435Z AUTO 14006KT 10SM CLR 02/M06 A3030 RMK AO2
KLBO 161415Z AUTO 13005KT 10SM CLR 01/M06 A3030 RMK AO2
KLBO 161355Z AUTO 13004KT 10SM CLR 00/M06 A3030 RMK AO2
KLBO 161335Z AUTO 13003KT 10SM CLR 00/M07 A3030 RMK AO2
KLBO 161315Z AUTO 13003KT 10SM CLR 00/M07 A3030 RMK AO2
KLBO 161255Z AUTO 13004KT 10SM CLR 00/M07 A3030 RMK AO2
KLBO 161235Z AUTO 14003KT 10SM CLR M01/M07 A3030 RMK AO2
KLBO 161215Z AUTO 13003KT 10SM CLR M01/M07 A3030 RMK AO2
KLBO 161155Z AUTO 14003KT 10SM CLR 00/M07 A3030 RMK AO2
KLBO 161135Z AUTO 13004KT 10SM CLR 00/M07 A3030 RMK AO2
KLBO 161115Z AUTO 14003KT 10SM CLR M01/M07 A3030 RMK AO2
KLBO 161055Z AUTO 14004KT 10SM CLR M01/M08 A3030 RMK AO2
KLBO 161035Z AUTO 00000KT 10SM CLR 00/M08 A3030 RMK AO2
KLBO 161015Z AUTO 15003KT 10SM CLR M01/M08 A3030 RMK AO2
KLBO 160955Z AUTO 00000KT 7SM CLR 00/M08 A3029 RMK AO2
KLBO 160935Z AUTO 00000KT 7SM CLR 00/M08 A3030 RMK AO2
KLBO 160915Z AUTO 00000KT 10SM CLR 00/M08 A3030 RMK AO2
KLBO 160855Z AUTO 00000KT 10SM CLR 00/M08 A3030 RMK AO2